Time;durP1;ratioP1;P1;durP2;ratioP2;P2;SDS_P1;SDS_P2;PMS_P1;PMS_P2;Temp;Humidity;BMP_temperature;BMP_pressure;BME280_temperature;BME280_humidity;BME280_pressure;Samples;Min_cycle;Max_cycle;Signal;HPM_P1;HPM_P2
2021/08/31 00:01:49;;;;;;;7.60;5.55;;;;;;;21.65;46.68;99517.59;5033008;28;20033;-46
2021/08/31 00:04:14;;;;;;;9.25;5.72;;;;;;;21.48;46.95;99528.81;5032912;28;20032;-47
2021/08/31 00:06:39;;;;;;;9.50;5.95;;;;;;;21.44;47.21;99525.06;5032832;28;20030;-47
2021/08/31 00:09:05;;;;;;;7.63;6.00;;;;;;;21.41;47.00;99522.06;5032801;28;20057;-48
2021/08/31 00:11:30;;;;;;;8.25;5.85;;;;;;;21.30;47.54;99529.44;5033007;28;20442;-52
2021/08/31 00:13:56;;;;;;;7.20;5.63;;;;;;;21.46;46.76;99527.47;5032775;28;20025;-50
2021/08/31 00:16:21;;;;;;;8.88;5.80;;;;;;;21.29;47.36;99523.22;5033024;28;20088;-47
2021/08/31 00:18:47;;;;;;;8.00;5.45;;;;;;;21.35;47.21;99528.59;5032726;28;20040;-48
2021/08/31 00:21:12;;;;;;;7.75;6.00;;;;;;;21.36;47.29;99527.50;5032447;28;20454;-47
2021/08/31 00:23:38;;;;;;;7.72;5.93;;;;;;;21.17;48.04;99538.16;5032646;28;20323;-49
2021/08/31 00:26:03;;;;;;;7.82;5.75;;;;;;;21.13;47.69;99535.19;5046277;28;20106;-48
2021/08/31 00:28:29;;;;;;;9.05;6.07;;;;;;;21.26;47.72;99531.88;5052303;28;20033;-47
2021/08/31 00:30:54;;;;;;;8.93;6.18;;;;;;;21.91;45.73;99533.63;5052250;28;20024;-48
2021/08/31 00:33:20;;;;;;;8.35;6.07;;;;;;;21.35;47.43;99537.53;5052381;28;20021;-47
2021/08/31 00:35:45;;;;;;;9.52;6.10;;;;;;;21.29;47.47;99538.66;5052254;28;20129;-47
2021/08/31 00:38:11;;;;;;;9.02;5.70;;;;;;;21.14;47.76;99542.25;5051663;28;20025;-48
2021/08/31 00:40:36;;;;;;;8.02;6.10;;;;;;;21.52;46.84;99549.91;5052367;28;20360;-50
2021/08/31 00:43:02;;;;;;;9.68;6.18;;;;;;;21.70;46.21;99543.00;5052371;28;20112;-48
2021/08/31 00:45:27;;;;;;;9.55;6.22;;;;;;;21.24;47.28;99550.28;5052171;28;20501;-49
2021/08/31 00:47:54;;;;;;;9.00;6.35;;;;;;;20.99;47.82;99547.72;5052083;28;20342;-49
2021/08/31 00:50:19;;;;;;;12.75;6.78;;;;;;;21.05;47.56;99544.69;5052135;28;20021;-46
2021/08/31 00:52:45;;;;;;;11.70;6.63;;;;;;;21.56;46.31;99550.97;5051229;28;20166;-50
2021/08/31 00:55:11;;;;;;;8.65;6.30;;;;;;;21.11;47.30;99541.97;5034016;28;20036;-45
2021/08/31 00:57:37;;;;;;;8.98;6.82;;;;;;;21.00;47.16;99555.56;5051881;28;20029;-49
2021/08/31 01:00:05;;;;;;;10.75;6.75;;;;;;;20.88;47.60;99546.94;5051633;28;20025;-49
2021/08/31 01:02:30;;;;;;;9.52;6.25;;;;;;;21.09;47.61;99553.06;5051732;28;20479;-47
2021/08/31 01:04:56;;;;;;;8.82;6.38;;;;;;;21.09;47.09;99553.91;5051813;28;20033;-48
2021/08/31 01:07:21;;;;;;;9.25;6.30;;;;;;;20.97;47.49;99552.59;5052022;28;20538;-48
2021/08/31 01:09:49;;;;;;;9.38;6.65;;;;;;;21.06;46.92;99553.66;5051504;28;20041;-47
2021/08/31 01:12:15;;;;;;;9.35;6.85;;;;;;;20.84;48.45;99551.28;5050054;28;20421;-46
2021/08/31 01:14:41;;;;;;;10.07;6.40;;;;;;;20.86;48.52;99546.41;5033926;28;20116;-46
2021/08/31 01:17:08;;;;;;;9.18;6.53;;;;;;;21.07;47.03;99547.13;5050327;28;20342;-48
2021/08/31 01:19:34;;;;;;;7.68;5.90;;;;;;;21.63;45.91;99551.47;5051409;28;20021;-49
2021/08/31 01:22:06;;;;;;;7.85;6.07;;;;;;;20.99;48.26;99551.22;5051299;28;20511;-50
2021/08/31 01:24:31;;;;;;;11.23;6.82;;;;;;;20.75;48.79;99550.25;5049594;28;20563;-46
2021/08/31 01:27:00;;;;;;;8.80;6.00;;;;;;;20.66;48.60;99547.31;5030923;28;20029;-50
2021/08/31 01:29:26;;;;;;;11.27;6.30;;;;;;;20.64;49.01;99550.28;5030278;28;20025;-46
2021/08/31 01:31:52;;;;;;;8.70;5.75;;;;;;;20.61;48.73;99545.41;5031297;28;20286;-50
2021/08/31 01:34:18;;;;;;;10.68;6.43;;;;;;;20.63;49.51;99548.66;5030964;28;20090;-47
2021/08/31 01:36:43;;;;;;;8.73;6.40;;;;;;;20.53;48.98;99558.66;5031047;28;20028;-46
2021/08/31 01:39:09;;;;;;;9.15;6.05;;;;;;;20.53;49.21;99555.97;5031577;28;20029;-46
2021/08/31 01:41:34;;;;;;;7.60;5.82;;;;;;;21.09;47.17;99556.63;5031048;28;20495;-49
2021/08/31 01:44:00;;;;;;;7.78;5.82;;;;;;;20.63;48.21;99553.25;5031244;28;20021;-47
2021/08/31 01:46:25;;;;;;;7.45;5.90;;;;;;;20.70;47.96;99553.78;5031213;28;20025;-47
2021/08/31 01:48:51;;;;;;;8.00;5.82;;;;;;;21.32;46.61;99558.91;5030768;28;20030;-48
2021/08/31 01:51:18;;;;;;;8.70;5.78;;;;;;;21.61;45.62;99554.44;5030874;28;20018;-48
2021/08/31 01:53:43;;;;;;;7.80;6.03;;;;;;;21.86;45.18;99552.66;5030831;28;20025;-50
2021/08/31 01:56:09;;;;;;;9.15;5.20;;;;;;;21.92;45.35;99554.22;5030669;28;20052;-48
2021/08/31 01:58:34;;;;;;;7.68;6.15;;;;;;;21.89;45.70;99557.47;5030511;28;20033;-47
2021/08/31 02:01:00;;;;;;;7.72;5.93;;;;;;;21.98;45.30;99552.28;5030938;28;20103;-50
2021/08/31 02:03:25;;;;;;;7.15;5.93;;;;;;;22.05;45.47;99555.47;5030651;28;20040;-47
2021/08/31 02:05:51;;;;;;;11.05;6.05;;;;;;;22.09;45.31;99555.72;5030900;28;20055;-49
2021/08/31 02:08:16;;;;;;;9.20;5.63;;;;;;;22.11;45.17;99558.94;5030433;28;20049;-47
2021/08/31 02:10:42;;;;;;;9.45;5.70;;;;;;;22.06;44.79;99543.53;5030610;28;20029;-48
2021/08/31 02:13:07;;;;;;;11.18;6.13;;;;;;;21.99;45.32;99549.28;5030613;28;20514;-50
2021/08/31 02:15:33;;;;;;;9.93;6.13;;;;;;;21.88;45.71;99561.31;5030755;28;20030;-49
2021/08/31 02:17:58;;;;;;;7.68;5.80;;;;;;;21.83;46.30;99558.63;5030459;28;20025;-48
2021/08/31 02:20:24;;;;;;;11.00;5.97;;;;;;;21.57;46.61;99561.53;5030308;28;20034;-49
2021/08/31 02:22:49;;;;;;;8.43;5.72;;;;;;;21.63;46.48;99554.19;5030923;28;20036;-51
2021/08/31 02:25:14;;;;;;;9.07;6.05;;;;;;;21.80;45.80;99567.31;5037912;28;20354;-50
2021/08/31 02:27:40;;;;;;;9.65;5.85;;;;;;;21.72;46.55;99565.19;5050362;28;20052;-50
2021/08/31 02:30:06;;;;;;;9.10;5.85;;;;;;;21.70;46.38;99570.88;5050323;28;20021;-48
2021/08/31 02:32:31;;;;;;;7.55;5.57;;;;;;;21.47;46.41;99567.78;5050348;28;20029;-47
2021/08/31 02:34:57;;;;;;;10.05;5.53;;;;;;;21.58;46.71;99567.75;5050577;28;20029;-48
2021/08/31 02:37:22;;;;;;;7.43;5.68;;;;;;;21.45;47.00;99558.34;5050506;28;20021;-48
2021/08/31 02:39:48;;;;;;;11.25;6.53;;;;;;;21.51;46.47;99572.66;5050517;28;20346;-49
2021/08/31 02:42:13;;;;;;;9.27;5.93;;;;;;;21.47;46.56;99577.81;5050264;28;20048;-49
2021/08/31 02:44:39;;;;;;;8.10;5.85;;;;;;;21.46;46.56;99574.31;5050239;28;20078;-49
2021/08/31 02:47:04;;;;;;;7.93;5.53;;;;;;;21.26;47.38;99575.19;5050133;28;20029;-47
2021/08/31 02:49:30;;;;;;;7.28;5.80;;;;;;;21.08;47.34;99582.03;5050310;28;20028;-48
2021/08/31 02:51:55;;;;;;;8.50;5.95;;;;;;;21.19;47.16;99584.69;5050100;28;20029;-47
2021/08/31 02:54:21;;;;;;;8.43;5.68;;;;;;;21.26;47.46;99577.09;5050089;28;20033;-51
2021/08/31 02:56:46;;;;;;;9.38;5.93;;;;;;;21.21;47.27;99582.50;5050069;28;20032;-50
2021/08/31 02:59:13;;;;;;;7.43;5.78;;;;;;;21.18;47.34;99583.06;5050130;28;20036;-47
2021/08/31 03:02:04;;;;;;;8.32;5.82;;;;;;;21.01;48.02;99580.72;5048515;28;20056;-49
2021/08/31 03:04:24;;;;;;;8.63;5.90;;;;;;;21.12;47.55;99576.09;5049896;28;20125;-47
2021/08/31 03:06:50;;;;;;;7.03;5.43;;;;;;;20.86;48.36;99586.97;5050230;28;20113;-48
2021/08/31 03:09:15;;;;;;;8.18;5.88;;;;;;;20.82;48.46;99588.63;5049948;28;20339;-48
2021/08/31 03:11:41;;;;;;;8.85;5.65;;;;;;;20.86;48.45;99597.78;5050039;28;20013;-50
2021/08/31 03:14:06;;;;;;;23.40;17.27;;;;;;;20.96;48.15;99595.06;5049830;28;20350;-48
2021/08/31 03:16:32;;;;;;;17.13;12.35;;;;;;;20.87;48.10;99589.41;5053323;28;20028;-49
2021/08/31 03:18:57;;;;;;;10.35;7.47;;;;;;;20.39;49.46;99597.06;5053679;28;20025;-47
2021/08/31 03:21:24;;;;;;;11.98;6.10;;;;;;;20.27;49.81;99602.72;5053459;28;20052;-47
2021/08/31 03:23:49;;;;;;;31.52;20.33;;;;;;;20.40;49.70;99609.47;5053311;28;20417;-47
2021/08/31 03:26:14;;;;;;;9.65;6.85;;;;;;;20.54;49.21;99611.63;5038038;28;20044;-51
2021/08/31 03:28:40;;;;;;;9.40;6.32;;;;;;;20.76;49.09;99612.16;5032684;28;20025;-49
2021/08/31 03:31:05;;;;;;;9.65;6.00;;;;;;;20.39;49.50;99613.28;5033863;28;20457;-50
2021/08/31 03:33:31;;;;;;;8.73;5.97;;;;;;;20.45;49.87;99614.88;5033472;28;20029;-50
2021/08/31 03:35:56;;;;;;;9.30;6.03;;;;;;;20.63;49.42;99610.03;5033814;28;20037;-50
2021/08/31 03:38:22;;;;;;;11.45;8.30;;;;;;;20.30;50.46;99609.50;5033445;28;20470;-49
2021/08/31 03:40:47;;;;;;;16.77;11.82;;;;;;;19.89;51.73;99623.75;5033293;28;20339;-49
2021/08/31 03:43:13;;;;;;;32.05;18.85;;;;;;;20.14;51.22;99610.56;5033376;28;20025;-48
2021/08/31 03:45:38;;;;;;;19.38;11.35;;;;;;;20.15;51.40;99612.19;5033850;28;20028;-50
2021/08/31 03:48:04;;;;;;;12.55;8.63;;;;;;;20.18;51.46;99615.19;5033418;28;20092;-51
2021/08/31 03:50:29;;;;;;;9.60;6.60;;;;;;;20.39;50.75;99617.84;5033345;28;20105;-50
2021/08/31 03:52:55;;;;;;;9.38;6.40;;;;;;;20.28;51.41;99608.94;5033419;28;20453;-49
2021/08/31 03:55:20;;;;;;;9.18;6.20;;;;;;;20.42;50.93;99622.72;5031825;28;20460;-50
2021/08/31 03:57:46;;;;;;;8.98;6.18;;;;;;;20.50;50.58;99630.28;5033079;28;20053;-47
2021/08/31 04:00:11;;;;;;;8.98;6.10;;;;;;;20.78;49.97;99631.63;5032812;28;20033;-48
2021/08/31 04:02:38;;;;;;;8.30;5.90;;;;;;;20.44;51.03;99631.38;5033222;28;20032;-51
2021/08/31 04:05:04;;;;;;;11.73;6.10;;;;;;;20.81;50.29;99622.97;5033092;28;20033;-52
2021/08/31 04:07:30;;;;;;;15.05;6.20;;;;;;;21.12;49.56;99631.00;5033298;28;20021;-49
2021/08/31 04:09:55;;;;;;;9.65;6.10;;;;;;;21.33;48.92;99639.84;5032863;28;20034;-49
2021/08/31 04:12:21;;;;;;;14.85;6.32;;;;;;;21.48;48.71;99645.22;5032754;28;20041;-49
2021/08/31 04:14:47;;;;;;;12.07;5.82;;;;;;;21.76;48.33;99642.91;5032793;28;20029;-49
2021/08/31 04:17:13;;;;;;;10.73;6.05;;;;;;;22.02;47.89;99651.66;5032868;28;20025;-47
2021/08/31 04:19:38;;;;;;;8.27;5.78;;;;;;;22.09;47.60;99645.13;5032402;28;20343;-49
2021/08/31 04:22:04;;;;;;;6.75;5.40;;;;;;;22.06;47.80;99651.91;5032899;28;20112;-50
2021/08/31 04:24:29;;;;;;;9.48;5.97;;;;;;;22.18;47.31;99648.84;5033836;28;20051;-47
2021/08/31 04:26:55;;;;;;;7.00;5.65;;;;;;;22.35;45.80;99648.47;5051128;28;20116;-46
2021/08/31 04:29:20;;;;;;;8.80;5.63;;;;;;;22.47;45.65;99650.84;5052089;28;20028;-47
2021/08/31 04:31:46;;;;;;;7.53;5.55;;;;;;;22.52;44.82;99646.13;5052650;28;20445;-47
2021/08/31 04:34:11;;;;;;;8.95;5.35;;;;;;;22.60;44.56;99648.25;5050939;28;20021;-47
2021/08/31 04:36:36;;;;;;;9.77;5.88;;;;;;;22.39;44.59;99630.53;5051995;28;20060;-46
2021/08/31 04:39:02;;;;;;;9.15;6.20;;;;;;;22.68;43.55;99649.53;5052494;28;20060;-49
2021/08/31 04:41:28;;;;;;;8.43;5.57;;;;;;;22.13;44.64;99660.53;5052062;28;20150;-48
2021/08/31 04:43:53;;;;;;;8.93;5.80;;;;;;;21.96;45.69;99660.91;5051939;28;20025;-49
2021/08/31 04:46:18;;;;;;;10.43;5.22;;;;;;;22.10;45.18;99666.50;5052171;28;20029;-47
2021/08/31 04:48:44;;;;;;;10.05;5.80;;;;;;;22.19;45.04;99656.69;5051943;28;20023;-49
2021/08/31 04:51:09;;;;;;;6.90;5.50;;;;;;;22.23;44.70;99665.06;5052043;28;20025;-50
2021/08/31 04:53:35;;;;;;;8.98;5.15;;;;;;;22.26;44.70;99659.13;5051784;28;20031;-48
2021/08/31 04:56:00;;;;;;;8.40;5.60;;;;;;;23.26;42.68;99653.28;5051560;28;20049;-50
2021/08/31 04:58:26;;;;;;;8.80;5.13;;;;;;;22.98;43.13;99653.84;5051522;28;20021;-49
2021/08/31 05:00:51;;;;;;;7.95;4.97;;;;;;;22.81;42.80;99654.28;5051506;28;20120;-48
2021/08/31 05:03:17;;;;;;;8.43;5.40;;;;;;;22.77;43.35;99658.69;5051999;28;20465;-49
2021/08/31 05:05:42;;;;;;;7.28;5.60;;;;;;;23.01;42.77;99661.38;5051857;28;20338;-48
2021/08/31 05:08:08;;;;;;;9.70;6.90;;;;;;;23.12;42.61;99670.28;5050767;28;20496;-51
2021/08/31 05:10:34;;;;;;;9.20;5.13;;;;;;;23.45;41.73;99662.28;5050547;28;20081;-48
2021/08/31 05:12:59;;;;;;;8.25;4.60;;;;;;;23.55;41.00;99666.75;5048028;28;20039;-47
2021/08/31 05:15:25;;;;;;;7.95;5.13;;;;;;;23.47;40.84;99667.41;5050649;28;20466;-48
2021/08/31 05:17:50;;;;;;;6.15;4.80;;;;;;;23.80;40.29;99661.03;5050695;28;20021;-47
2021/08/31 05:20:16;;;;;;;12.38;5.22;;;;;;;24.14;39.76;99659.16;5049449;28;20025;-48
2021/08/31 05:22:42;;;;;;;9.23;5.30;;;;;;;24.29;39.36;99664.34;5049367;28;20052;-49
2021/08/31 05:25:07;;;;;;;7.07;4.85;;;;;;;24.44;39.29;99659.78;5042683;28;20021;-46
2021/08/31 05:27:33;;;;;;;7.57;4.70;;;;;;;24.71;39.03;99664.50;5030552;28;20025;-49
2021/08/31 05:29:58;;;;;;;6.10;4.60;;;;;;;24.67;39.23;99656.13;5030508;28;20394;-50
2021/08/31 05:32:24;;;;;;;6.45;4.70;;;;;;;24.85;39.04;99654.47;5030593;28;20029;-47
2021/08/31 05:34:49;;;;;;;9.88;4.63;;;;;;;24.92;38.94;99659.50;5030507;28;20049;-48
2021/08/31 05:37:15;;;;;;;6.38;4.88;;;;;;;25.09;38.52;99657.00;5030134;28;20053;-48
2021/08/31 05:39:40;;;;;;;8.23;4.72;;;;;;;25.11;38.49;99662.13;5030418;28;20025;-49
2021/08/31 05:42:07;;;;;;;7.90;4.88;;;;;;;25.54;37.63;99654.47;5029715;28;20068;-48
2021/08/31 05:44:37;;;;;;;9.90;5.35;;;;;;;26.38;36.12;99670.59;5029174;28;20405;-48
2021/08/31 05:47:02;;;;;;;8.45;5.05;;;;;;;26.42;35.44;99658.72;5029507;28;20544;-48
2021/08/31 05:49:29;;;;;;;6.80;4.72;;;;;;;26.36;35.67;99662.72;5029752;28;20108;-48
2021/08/31 05:51:55;;;;;;;10.45;5.60;;;;;;;26.58;36.01;99661.91;5028944;28;20063;-49
2021/08/31 05:54:20;;;;;;;7.40;4.90;;;;;;;27.02;35.11;99662.13;5029138;28;20018;-50
2021/08/31 05:56:47;;;;;;;6.20;4.80;;;;;;;27.35;34.16;99659.84;5029250;28;20040;-50
2021/08/31 05:59:13;;;;;;;6.32;4.57;;;;;;;27.13;34.80;99657.19;5039192;28;20063;-47
2021/08/31 06:01:40;;;;;;;7.95;5.00;;;;;;;27.01;35.49;99660.50;5039421;28;20021;-50
2021/08/31 06:04:05;;;;;;;7.00;4.75;;;;;;;27.30;35.26;99654.53;5037639;28;20021;-49
2021/08/31 06:06:31;;;;;;;10.20;5.38;;;;;;;27.77;34.79;99659.44;5038856;28;20079;-50
2021/08/31 06:08:56;;;;;;;6.93;4.85;;;;;;;27.87;34.23;99659.94;5038536;28;20050;-49
2021/08/31 06:11:22;;;;;;;5.75;4.70;;;;;;;27.92;34.13;99660.94;5037524;28;20025;-48
2021/08/31 06:13:48;;;;;;;7.95;4.60;;;;;;;27.68;34.71;99660.25;5037955;28;20427;-50
2021/08/31 06:16:13;;;;;;;11.45;5.10;;;;;;;28.12;33.99;99656.72;5038932;28;20067;-47
2021/08/31 06:18:39;;;;;;;7.47;4.90;;;;;;;28.76;33.13;99656.00;5039090;28;20028;-49
2021/08/31 06:21:05;;;;;;;6.60;4.78;;;;;;;28.65;33.03;99661.00;5037076;28;20481;-49
2021/08/31 06:23:30;;;;;;;6.65;4.60;;;;;;;28.34;33.61;99661.22;5038979;28;20043;-45
2021/08/31 06:25:55;;;;;;;8.63;4.55;;;;;;;28.27;33.68;99654.31;5036448;28;20346;-51
2021/08/31 06:28:21;;;;;;;6.75;4.78;;;;;;;28.75;32.59;99655.19;5039111;28;20601;-50
2021/08/31 06:30:46;;;;;;;9.00;5.10;;;;;;;29.94;30.98;99649.72;5037040;28;20045;-48
2021/08/31 06:33:12;;;;;;;7.03;4.65;;;;;;;29.45;31.28;99657.63;5039468;28;20021;-48
2021/08/31 06:35:37;;;;;;;7.47;4.82;;;;;;;28.89;32.64;99659.66;5038327;28;20025;-47
2021/08/31 06:38:03;;;;;;;10.48;4.53;;;;;;;28.97;32.50;99661.56;5029170;28;20033;-48
2021/08/31 06:40:28;;;;;;;8.02;5.10;;;;;;;29.10;32.39;99657.78;5028950;28;20469;-47
2021/08/31 06:42:54;;;;;;;8.93;4.72;;;;;;;30.18;30.56;99661.94;5029013;28;20036;-47
2021/08/31 06:45:19;;;;;;;7.18;4.90;;;;;;;29.96;31.34;99652.91;5027437;28;20029;-47
2021/08/31 06:47:45;;;;;;;10.23;4.95;;;;;;;29.99;30.79;99654.19;5028747;28;20026;-47
2021/08/31 06:50:15;;;;;;;9.38;5.00;;;;;;;29.81;30.76;99651.56;5030429;28;20588;-47
2021/08/31 06:52:41;;;;;;;7.68;4.60;;;;;;;30.09;30.96;99655.72;5033126;28;20026;-50
2021/08/31 06:55:07;;;;;;;11.40;5.78;;;;;;;31.22;29.02;99657.25;5033023;28;20056;-46
2021/08/31 06:57:33;;;;;;;13.88;4.80;;;;;;;30.98;29.13;99647.88;5032786;28;20501;-47
2021/08/31 06:59:58;;;;;;;6.65;4.78;;;;;;;30.58;30.19;99653.16;5032553;28;20024;-48
2021/08/31 07:02:24;;;;;;;7.03;4.40;;;;;;;30.60;30.18;99651.69;5039579;28;20029;-47
2021/08/31 07:04:49;;;;;;;11.63;6.03;;;;;;;30.65;29.59;99653.38;5052552;28;20021;-47
2021/08/31 07:07:15;;;;;;;8.73;4.60;;;;;;;31.31;29.12;99649.69;5052401;28;20139;-47
2021/08/31 07:09:40;;;;;;;6.53;4.20;;;;;;;31.04;29.05;99655.88;5052526;28;20049;-48
2021/08/31 07:12:06;;;;;;;5.20;4.60;;;;;;;31.35;28.42;99647.03;5052399;28;20036;-49
2021/08/31 07:14:32;;;;;;;7.45;5.20;;;;;;;31.23;29.17;99653.34;5052537;28;20098;-50
2021/08/31 07:16:57;;;;;;;8.27;4.57;;;;;;;31.25;28.38;99642.81;5052599;28;20365;-49
2021/08/31 07:19:23;;;;;;;6.75;5.20;;;;;;;30.75;29.46;99650.22;5052086;28;20033;-47
2021/08/31 07:21:50;;;;;;;8.85;4.80;;;;;;;30.70;29.88;99646.91;5052328;28;20017;-37
2021/08/31 07:24:15;;;;;;;11.52;5.10;;;;;;;30.91;30.07;99649.56;5035328;28;20034;-37
2021/08/31 07:26:40;;;;;;;7.95;4.47;;;;;;;31.10;29.41;99660.78;5032203;28;20056;-37
2021/08/31 07:29:06;;;;;;;8.77;4.72;;;;;;;31.37;28.81;99662.03;5031924;28;20026;-37
2021/08/31 07:31:31;;;;;;;6.78;4.57;;;;;;;31.91;27.69;99658.19;5032345;28;20577;-38
2021/08/31 07:33:57;;;;;;;7.57;4.80;;;;;;;31.67;28.27;99656.28;5032305;28;20021;-37
2021/08/31 07:36:22;;;;;;;8.85;4.57;;;;;;;31.65;28.11;99652.31;5032107;28;20025;-37
2021/08/31 07:38:48;;;;;;;7.38;4.78;;;;;;;31.31;28.33;99665.38;5031517;28;20036;-37
2021/08/31 07:41:14;;;;;;;7.47;4.60;;;;;;;31.37;27.72;99655.75;5031260;28;20025;-37
2021/08/31 07:43:41;;;;;;;5.25;4.28;;;;;;;32.22;27.18;99656.72;5031881;28;20044;-37
2021/08/31 07:46:06;;;;;;;7.28;4.95;;;;;;;32.10;27.59;99654.00;5031774;28;20370;-36
2021/08/31 07:48:32;;;;;;;7.55;5.00;;;;;;;31.44;28.81;99655.97;5029735;28;20494;-36
2021/08/31 07:50:57;;;;;;;8.20;4.57;;;;;;;31.73;27.98;99659.59;5031339;28;20022;-36
2021/08/31 07:53:23;;;;;;;11.13;5.22;;;;;;;31.71;27.67;99656.41;5031291;28;20040;-36
2021/08/31 07:55:48;;;;;;;9.35;4.72;;;;;;;32.40;26.40;99659.94;5031554;28;20029;-36
2021/08/31 07:58:14;;;;;;;5.30;4.75;;;;;;;31.90;27.07;99662.06;5033435;28;20021;-36
2021/08/31 08:00:40;;;;;;;7.88;4.50;;;;;;;31.89;27.73;99654.16;5036326;28;20108;-37
2021/08/31 08:03:06;;;;;;;5.45;4.60;;;;;;;31.86;28.09;99650.16;5041898;28;20473;-37
2021/08/31 08:05:31;;;;;;;6.10;4.75;;;;;;;32.14;27.38;99655.72;5043783;28;20033;-36
2021/08/31 08:07:57;;;;;;;4.88;4.20;;;;;;;32.47;26.43;99651.06;5034581;28;20022;-37
2021/08/31 08:10:22;;;;;;;5.70;4.57;;;;;;;32.48;26.68;99645.22;5047013;28;20071;-38
2021/08/31 08:12:48;;;;;;;6.63;4.53;;;;;;;32.60;26.13;99646.34;5037635;28;20039;-38
2021/08/31 08:15:14;;;;;;;7.10;4.30;;;;;;;32.42;26.65;99643.06;5040662;28;20414;-38
2021/08/31 08:17:40;;;;;;;6.20;4.30;;;;;;;32.63;26.06;99640.09;5044871;28;20555;-38
2021/08/31 08:20:08;;;;;;;6.47;4.88;;;;;;;33.22;25.87;99650.22;5034178;28;20037;-38
2021/08/31 08:22:34;;;;;;;8.60;4.90;;;;;;;33.20;25.29;99640.72;5045892;28;20095;-38
2021/08/31 08:24:59;;;;;;;5.40;4.38;;;;;;;33.07;26.21;99637.22;5033455;28;20385;-38
2021/08/31 08:27:24;;;;;;;7.13;4.30;;;;;;;33.01;26.08;99633.94;5039823;28;20108;-37
2021/08/31 08:29:50;;;;;;;6.32;4.32;;;;;;;32.72;25.91;99635.22;5040407;28;20024;-37
2021/08/31 08:32:15;;;;;;;7.85;4.50;;;;;;;33.27;25.87;99636.16;5039489;28;20334;-37
2021/08/31 08:34:41;;;;;;;9.95;5.00;;;;;;;33.52;25.51;99618.59;5037582;28;20031;-37
2021/08/31 08:37:07;;;;;;;5.15;4.60;;;;;;;33.11;25.61;99627.94;5038311;28;20491;-37
2021/08/31 08:39:32;;;;;;;8.27;4.72;;;;;;;33.15;25.47;99625.25;5037417;28;20498;-37
2021/08/31 08:41:58;;;;;;;6.15;4.93;;;;;;;33.14;25.54;99623.66;5046508;28;20083;-37
2021/08/31 08:44:28;;;;;;;5.95;4.32;;;;;;;33.18;25.57;99618.22;5033870;28;20124;-37
2021/08/31 08:46:53;;;;;;;7.53;4.53;;;;;;;34.27;24.35;99612.66;5043005;28;20409;-37
2021/08/31 08:49:19;;;;;;;5.95;4.43;;;;;;;33.61;24.48;99613.66;5037756;28;20022;-37
2021/08/31 08:51:44;;;;;;;5.43;4.78;;;;;;;33.29;24.94;99619.28;5041827;28;20021;-37
2021/08/31 08:54:10;;;;;;;6.63;4.90;;;;;;;32.91;25.58;99617.97;5035074;28;20032;-39
2021/08/31 08:56:35;;;;;;;6.88;4.28;;;;;;;32.92;25.60;99612.09;5036748;28;20025;-37
2021/08/31 08:59:01;;;;;;;5.40;4.70;;;;;;;33.19;25.16;99617.09;5036541;28;20037;-37
2021/08/31 09:01:47;;;;;;;6.40;4.68;;;;;;;33.17;25.30;99611.91;5023019;28;20047;-37
2021/08/31 09:04:14;;;;;;;5.05;4.55;;;;;;;32.87;25.45;99597.81;5039545;28;20045;-37
2021/08/31 09:06:41;;;;;;;7.88;4.78;;;;;;;32.87;25.48;99603.31;5040598;28;20041;-38
2021/08/31 09:09:06;;;;;;;7.85;4.80;;;;;;;32.73;26.28;99592.75;5039914;28;20050;-37
2021/08/31 09:11:33;;;;;;;7.80;4.78;;;;;;;32.95;26.08;99594.06;5038411;28;20087;-38
2021/08/31 09:14:21;;;;;;;6.85;4.68;;;;;;;32.59;26.19;99590.44;5036750;28;20039;-37
2021/08/31 09:16:48;;;;;;;7.22;5.07;;;;;;;32.69;25.72;99587.16;5041501;28;20029;-37
2021/08/31 09:19:14;;;;;;;7.60;4.60;;;;;;;32.96;25.20;99586.56;5039556;28;20027;-37
2021/08/31 09:21:39;;;;;;;7.20;4.95;;;;;;;32.96;25.30;99579.13;5036155;28;20025;-37
2021/08/31 09:25:01;;;;;;;9.27;5.30;;;;;;;32.56;25.72;99576.53;5047286;28;20035;-37
2021/08/31 09:27:37;;;;;;;6.97;5.03;;;;;;;32.06;26.67;99565.03;5043268;28;20028;-37
2021/08/31 09:30:20;;;;;;;7.63;5.05;;;;;;;32.10;27.35;99561.25;5034121;28;20059;-37
2021/08/31 09:33:08;;;;;;;6.28;5.10;;;;;;;32.21;27.49;99564.28;5035380;28;20029;-37
2021/08/31 09:35:37;;;;;;;8.55;5.03;;;;;;;32.10;27.44;99568.69;5036981;28;20095;-37
2021/08/31 09:38:07;;;;;;;8.82;5.07;;;;;;;32.44;27.04;99564.47;5047165;28;20115;-37
2021/08/31 09:40:52;;;;;;;7.80;5.20;;;;;;;32.75;26.85;99560.16;5035366;28;20056;-37
2021/08/31 09:43:20;;;;;;;12.60;6.38;;;;;;;32.75;26.63;99554.63;5039726;28;20183;-36
2021/08/31 09:45:47;;;;;;;6.13;5.43;;;;;;;32.53;26.53;99548.56;5045236;28;20144;-38
2021/08/31 09:48:13;;;;;;;7.70;5.45;;;;;;;31.88;27.40;99542.53;5033412;28;20025;-38
2021/08/31 09:50:46;;;;;;;8.93;5.22;;;;;;;32.01;27.39;99544.06;5044610;28;20437;-37
2021/08/31 09:53:18;;;;;;;10.27;5.30;;;;;;;32.51;27.19;99533.56;5040102;28;20087;-37
2021/08/31 09:56:08;;;;;;;6.10;5.50;;;;;;;32.55;27.31;99537.19;5035490;28;20037;-37
2021/08/31 09:58:34;;;;;;;8.80;6.07;;;;;;;32.44;26.80;99523.16;5033403;28;20219;-37
2021/08/31 10:01:00;;;;;;;9.80;6.05;;;;;;;32.30;27.54;99525.56;5041153;28;20466;-37
2021/08/31 10:03:26;;;;;;;6.07;5.47;;;;;;;33.25;25.92;99519.16;5041889;28;20143;-37
2021/08/31 10:05:53;;;;;;;7.03;5.60;;;;;;;32.62;26.46;99525.59;5034609;28;20112;-37
2021/08/31 10:08:19;;;;;;;9.45;5.95;;;;;;;31.96;27.26;99519.56;5046401;28;20045;-37
2021/08/31 10:10:48;;;;;;;8.15;5.43;;;;;;;32.19;27.38;99521.75;5036127;28;20385;-37
2021/08/31 10:13:18;;;;;;;7.65;5.65;;;;;;;32.41;27.11;99512.88;5039536;28;20092;-37
2021/08/31 10:15:46;;;;;;;6.93;5.50;;;;;;;32.77;27.56;99508.25;5030123;28;20075;-38
2021/08/31 10:18:13;;;;;;;7.25;5.53;;;;;;;32.50;27.56;99507.16;5046296;28;20078;-38
2021/08/31 10:20:44;;;;;;;7.60;5.68;;;;;;;32.73;26.96;99508.16;5034563;28;20163;-38
2021/08/31 10:23:11;;;;;;;6.95;5.35;;;;;;;32.63;26.67;99500.44;5028497;28;20171;-37
2021/08/31 10:25:37;;;;;;;6.15;5.13;;;;;;;32.57;26.45;99493.59;5031048;28;20029;-37
2021/08/31 10:28:03;;;;;;;8.10;5.32;;;;;;;32.08;27.17;99493.94;5046234;28;20393;-37
2021/08/31 10:30:30;;;;;;;5.72;4.97;;;;;;;32.14;27.61;99490.59;5016035;28;20374;-37
2021/08/31 10:33:00;;;;;;;8.50;5.32;;;;;;;32.75;27.02;99490.47;5041449;28;20017;-37
2021/08/31 10:35:31;;;;;;;6.90;5.75;;;;;;;32.78;26.48;99479.53;5042086;28;20021;-37
2021/08/31 10:37:58;;;;;;;8.48;5.32;;;;;;;32.59;26.72;99477.53;5033008;28;20103;-36
2021/08/31 10:40:32;;;;;;;8.23;5.57;;;;;;;31.81;27.50;99473.56;5033619;28;20029;-37
2021/08/31 10:42:58;;;;;;;8.00;5.45;;;;;;;32.08;26.94;99471.94;5041286;28;20119;-37
2021/08/31 10:45:24;;;;;;;6.65;5.40;;;;;;;32.11;26.99;99463.78;5041779;28;20060;-37
2021/08/31 10:47:49;;;;;;;7.20;6.03;;;;;;;32.28;26.87;99454.34;5034732;28;20477;-37
2021/08/31 10:50:15;;;;;;;6.30;5.53;;;;;;;32.24;27.90;99461.72;5045918;28;20074;-38
2021/08/31 10:52:45;;;;;;;7.32;5.90;;;;;;;32.50;27.71;99457.59;5035118;28;20146;-38
2021/08/31 10:55:26;;;;;;;7.93;5.55;;;;;;;32.29;27.39;99453.22;5039475;28;20030;-37
2021/08/31 10:57:52;;;;;;;6.72;5.57;;;;;;;32.14;27.87;99465.03;5043444;28;20360;-38
2021/08/31 11:00:17;;;;;;;7.30;5.22;;;;;;;32.21;27.38;99459.69;5047028;28;20029;-37
2021/08/31 11:02:48;;;;;;;8.60;5.50;;;;;;;32.04;26.96;99458.09;5036637;28;20036;-38
2021/08/31 11:05:26;;;;;;;6.70;5.53;;;;;;;32.07;27.11;99451.09;5038024;28;20021;-38
2021/08/31 11:07:52;;;;;;;5.97;5.28;;;;;;;32.25;26.90;99452.34;5039286;28;20504;-38
2021/08/31 11:10:21;;;;;;;11.05;5.47;;;;;;;32.85;25.82;99448.59;5039153;28;20476;-38
2021/08/31 11:12:46;;;;;;;6.13;5.20;;;;;;;33.08;26.11;99446.72;5035118;28;20021;-38
2021/08/31 11:15:24;;;;;;;9.13;5.47;;;;;;;32.91;26.59;99452.66;5036849;28;20033;-38
2021/08/31 11:17:51;;;;;;;8.52;5.65;;;;;;;33.09;26.26;99447.50;5038807;28;20033;-38
2021/08/31 11:20:32;;;;;;;6.72;5.40;;;;;;;32.25;27.25;99452.34;5034805;28;20017;-37
2021/08/31 11:23:07;;;;;;;6.70;4.97;;;;;;;32.25;26.76;99435.81;5037022;28;20017;-38
2021/08/31 11:25:37;;;;;;;6.13;5.53;;;;;;;32.94;26.43;99438.16;5034346;28;20017;-38
2021/08/31 11:28:20;;;;;;;7.00;5.78;;;;;;;32.92;26.95;99446.00;5046336;28;20552;-37
2021/08/31 11:30:52;;;;;;;6.57;5.38;;;;;;;32.45;27.57;99441.38;5042510;28;20088;-37